createdAt,value
2022-08-22T00:02:11.067Z,25.40
2022-08-22T00:02:48.504Z,26.20
2022-08-22T00:02:59.713Z,26.50
2022-08-22T00:03:11.175Z,25.70
2022-08-22T00:03:11.473Z,25.50
2022-08-22T00:04:47.761Z,25.50
2022-08-22T00:07:22.045Z,25.40
2022-08-22T00:09:57.468Z,25.40
2022-08-22T00:12:29.612Z,25.40
2022-08-22T00:15:00.313Z,25.40
2022-08-22T00:17:36.045Z,25.40
2022-08-22T00:20:10.102Z,25.50
2022-08-22T00:22:41.933Z,25.50
2022-08-22T00:25:29.649Z,25.60
2022-08-22T00:28:00.563Z,25.60
2022-08-22T00:30:30.335Z,25.60
2022-08-22T00:33:00.744Z,25.60
2022-08-22T00:35:35.205Z,25.70
2022-08-22T00:38:06.742Z,25.70
2022-08-22T00:40:43.509Z,25.80
2022-08-22T00:43:30.500Z,25.80
2022-08-22T00:46:03.503Z,25.80
2022-08-22T00:48:55.930Z,25.80
2022-08-22T00:51:40.807Z,25.70
2022-08-22T00:54:17.737Z,25.70
2022-08-22T00:56:59.845Z,25.70
2022-08-22T00:59:43.120Z,25.60
2022-08-22T01:02:21.849Z,25.70
2022-08-22T01:04:53.538Z,25.70
2022-08-22T01:07:42.389Z,25.80
2022-08-22T01:10:28.564Z,25.80
2022-08-22T01:13:04.241Z,25.80
2022-08-22T01:15:35.747Z,25.70
2022-08-22T01:18:26.944Z,25.70
2022-08-22T01:21:13.725Z,25.60
2022-08-22T01:24:03.021Z,25.50
2022-08-22T01:26:46.421Z,25.50
2022-08-22T01:29:35.422Z,25.60
2022-08-22T01:32:19.330Z,25.50
2022-08-22T01:35:14.774Z,25.60
2022-08-22T01:37:51.989Z,25.60
2022-08-22T01:40:32.566Z,25.50
2022-08-22T01:43:11.090Z,25.50
2022-08-22T01:45:48.295Z,25.60
2022-08-22T01:48:18.685Z,25.50
2022-08-22T01:50:49.166Z,25.60
2022-08-22T01:53:22.827Z,25.50
2022-08-22T01:55:58.724Z,25.50
2022-08-22T01:58:28.797Z,25.50
2022-08-22T02:01:03.955Z,25.50
2022-08-22T02:06:03.917Z,25.50
2022-08-22T02:08:38.496Z,25.40
2022-08-22T02:11:10.566Z,25.30
2022-08-22T02:13:50.705Z,25.40
2022-08-22T02:16:22.196Z,25.30
2022-08-22T02:18:55.493Z,25.30
2022-08-22T02:21:26.845Z,25.20
2022-08-22T02:23:58.979Z,25.30
2022-08-22T02:26:30.758Z,25.30
2022-08-22T02:29:01.250Z,25.40
2022-08-22T02:31:37.966Z,25.30
2022-08-22T02:34:18.610Z,25.20
2022-08-22T02:36:49.393Z,25.20
2022-08-22T02:39:22.598Z,25.10
2022-08-22T02:41:54.859Z,25.10
2022-08-22T02:44:27.658Z,25.10
2022-08-22T02:47:03.307Z,25.10
2022-08-22T02:49:35.045Z,25.00
2022-08-22T02:52:14.076Z,25.00
2022-08-22T02:54:47.509Z,25.00
2022-08-22T02:57:20.383Z,25.00
2022-08-22T03:00:27.659Z,25.00
2022-08-22T03:03:02.279Z,24.90
2022-08-22T03:05:41.655Z,24.90
2022-08-22T03:08:13.375Z,24.90
2022-08-22T03:10:42.783Z,25.00
2022-08-22T03:13:13.966Z,24.90
2022-08-22T03:15:48.626Z,24.90
2022-08-22T03:18:21.653Z,24.90
2022-08-22T03:20:54.062Z,24.90
2022-08-22T03:23:27.339Z,24.90
2022-08-22T03:26:00.886Z,25.00
2022-08-22T03:28:33.614Z,25.00
2022-08-22T03:31:09.305Z,25.10
2022-08-22T03:33:37.755Z,25.10
2022-08-22T03:36:08.016Z,25.10
2022-08-22T03:38:50.069Z,25.00
2022-08-22T03:41:25.770Z,24.90
2022-08-22T03:44:02.408Z,24.90
2022-08-22T03:46:42.053Z,24.90
2022-08-22T03:49:28.158Z,24.90
2022-08-22T03:52:07.014Z,24.80
2022-08-22T03:54:59.150Z,24.80
2022-08-22T03:57:51.207Z,24.80
2022-08-22T04:00:39.263Z,24.70
2022-08-22T04:03:25.576Z,24.70
2022-08-22T04:06:12.734Z,24.60
2022-08-22T04:08:51.444Z,24.60
2022-08-22T04:11:34.794Z,24.60
2022-08-22T04:16:49.597Z,24.50
2022-08-22T04:19:32.901Z,24.40
2022-08-22T04:22:16.281Z,24.40
2022-08-22T04:24:52.232Z,24.40
2022-08-22T04:27:23.602Z,24.40
2022-08-22T04:29:55.952Z,24.40
2022-08-22T04:32:26.733Z,24.50
2022-08-22T04:34:58.947Z,24.60
2022-08-22T04:37:33.216Z,24.70
2022-08-22T04:40:04.142Z,24.80
2022-08-22T04:42:36.447Z,24.70
2022-08-22T04:45:11.065Z,24.80
2022-08-22T04:47:41.413Z,24.80
2022-08-22T04:50:15.274Z,24.80
2022-08-22T04:52:53.034Z,24.80
2022-08-22T04:55:26.188Z,24.80
2022-08-22T04:57:58.307Z,24.80
2022-08-22T05:00:36.602Z,24.80
2022-08-22T05:03:09.652Z,24.80
2022-08-22T05:05:39.599Z,24.70
2022-08-22T05:08:12.813Z,24.60
2022-08-22T05:10:42.744Z,24.70
2022-08-22T05:13:14.664Z,24.70
2022-08-22T05:15:44.635Z,24.60
2022-08-22T05:18:15.989Z,24.70
2022-08-22T05:20:46.741Z,24.80
2022-08-22T05:23:20.078Z,24.70
2022-08-22T05:25:50.329Z,24.80
2022-08-22T05:28:24.754Z,24.70
2022-08-22T05:30:53.262Z,24.80
2022-08-22T05:33:25.628Z,24.80
2022-08-22T05:35:58.081Z,24.90
2022-08-22T05:38:30.174Z,25.00
2022-08-22T05:41:03.036Z,25.00
2022-08-22T05:43:34.539Z,24.90
2022-08-22T05:46:06.095Z,25.00
2022-08-22T05:48:38.125Z,25.00
2022-08-22T05:51:10.911Z,25.00
2022-08-22T05:53:42.664Z,25.10
2022-08-22T05:56:14.003Z,25.00
2022-08-22T05:58:52.792Z,25.00
2022-08-22T06:01:23.894Z,25.00
2022-08-22T06:03:57.367Z,25.00
2022-08-22T06:06:28.006Z,25.00
2022-08-22T06:08:59.540Z,25.10
2022-08-22T06:11:32.761Z,25.10
2022-08-22T06:14:09.382Z,25.20
2022-08-22T06:16:47.543Z,25.20
2022-08-22T06:19:19.298Z,25.20
2022-08-22T06:21:50.712Z,25.40
2022-08-22T06:24:23.957Z,25.50
2022-08-22T06:26:53.832Z,25.60
2022-08-22T06:29:30.049Z,25.60
2022-08-22T06:31:59.046Z,25.60
2022-08-22T06:34:29.282Z,25.80
2022-08-22T06:36:58.619Z,26.00
2022-08-22T06:39:31.136Z,26.10
2022-08-22T06:42:02.934Z,26.20
2022-08-22T06:44:32.927Z,26.40
2022-08-22T06:47:03.221Z,26.40
2022-08-22T06:49:34.577Z,26.50
2022-08-22T06:52:06.608Z,26.40
2022-08-22T06:54:40.520Z,26.30
2022-08-22T06:57:13.551Z,26.20
2022-08-22T06:59:44.013Z,26.10
2022-08-22T07:02:22.346Z,26.10
2022-08-22T07:04:51.883Z,26.00
2022-08-22T07:07:20.894Z,26.00
2022-08-22T07:09:55.505Z,26.00
2022-08-22T07:12:29.292Z,26.10
2022-08-22T07:15:00.521Z,26.20
2022-08-22T07:17:30.804Z,26.10
2022-08-22T07:20:01.160Z,26.10
2022-08-22T07:22:32.089Z,26.20
2022-08-22T07:25:04.164Z,26.20
2022-08-22T07:27:41.002Z,26.30
2022-08-22T07:30:13.087Z,26.30
2022-08-22T07:32:46.120Z,26.30
2022-08-22T07:35:16.981Z,26.40
2022-08-22T07:37:58.419Z,26.50
2022-08-22T07:40:33.209Z,26.50
2022-08-22T07:43:04.454Z,26.50
2022-08-22T07:45:35.013Z,26.50
2022-08-22T07:48:25.838Z,26.70
2022-08-22T07:50:59.790Z,26.80
2022-08-22T07:53:30.487Z,27.10
2022-08-22T10:08:35.174Z,27.30
2022-08-22T10:11:24.657Z,28.20
2022-08-22T10:16:30.829Z,28.10
2022-08-22T10:19:07.953Z,28.00
2022-08-22T10:21:39.698Z,28.00
2022-08-22T10:24:24.579Z,28.00
2022-08-22T10:29:36.810Z,28.00
2022-08-22T10:32:13.946Z,28.00
2022-08-22T10:34:45.755Z,28.00
2022-08-22T10:37:19.053Z,27.60
2022-08-22T10:39:58.407Z,27.60
2022-08-22T10:42:35.111Z,27.60
2022-08-22T10:45:35.110Z,27.50
2022-08-22T10:48:27.361Z,27.50
2022-08-22T10:51:00.000Z,27.50
2022-08-22T10:53:34.868Z,27.50
2022-08-22T10:56:10.885Z,27.60
2022-08-22T10:58:41.463Z,27.50
2022-08-22T11:01:38.330Z,27.40
2022-08-22T11:04:12.237Z,27.60
2022-08-22T11:06:44.886Z,27.50
2022-08-22T11:09:16.422Z,27.50
2022-08-22T11:11:48.694Z,27.40
2022-08-22T11:14:35.810Z,27.50
2022-08-22T11:17:29.943Z,27.50
2022-08-22T11:20:13.278Z,27.50
2022-08-22T11:22:47.090Z,27.50
2022-08-22T11:28:04.547Z,27.60
2022-08-22T11:30:36.366Z,27.70
2022-08-22T11:48:17.832Z,27.90
2022-08-22T11:50:50.371Z,27.70
2022-08-22T11:53:23.026Z,27.80
2022-08-22T11:55:57.610Z,27.50
2022-08-22T11:58:28.938Z,27.50
2022-08-22T12:01:00.919Z,27.60
2022-08-22T12:03:41.788Z,27.60
2022-08-22T12:06:20.089Z,27.60
2022-08-22T12:16:20.719Z,27.80
2022-08-22T12:18:56.606Z,27.60
2022-08-22T12:21:49.557Z,27.60
2022-08-22T12:24:32.842Z,27.70
2022-08-22T12:34:35.202Z,27.80
2022-08-22T12:37:12.049Z,27.60
2022-08-22T12:39:57.702Z,27.50
2022-08-22T12:42:32.846Z,27.60
2022-08-22T12:45:20.052Z,27.50
2022-08-22T12:47:56.281Z,27.60
2022-08-22T13:02:56.974Z,27.80
2022-08-22T13:05:26.817Z,27.60
2022-08-22T13:07:59.173Z,27.60
2022-08-22T13:10:35.008Z,27.50
2022-08-22T13:13:12.134Z,27.50
2022-08-22T13:15:43.837Z,27.70
2022-08-22T13:18:29.657Z,27.60
2022-08-22T13:21:01.650Z,27.50
2022-08-22T13:23:34.262Z,27.40
2022-08-22T13:26:11.330Z,27.40
2022-08-22T13:28:43.350Z,27.40
2022-08-22T13:31:19.708Z,27.30
2022-08-22T13:33:50.162Z,27.20
2022-08-22T13:36:20.054Z,27.40
2022-08-22T13:38:53.030Z,27.50
2022-08-22T13:44:13.676Z,27.60
2022-08-22T13:46:58.181Z,27.60
2022-08-22T13:49:35.468Z,27.30
2022-08-22T13:52:14.569Z,27.50
2022-08-22T13:55:00.833Z,27.40
2022-08-22T13:57:32.463Z,27.30
2022-08-22T14:00:07.972Z,27.30
2022-08-22T14:02:44.864Z,27.40
2022-08-22T14:05:18.228Z,27.40
2022-08-22T14:25:36.660Z,27.60
2022-08-22T14:28:06.504Z,27.40
2022-08-22T14:30:40.395Z,27.30
2022-08-22T14:33:13.182Z,27.20
2022-08-22T14:35:43.454Z,27.30
2022-08-22T14:38:30.227Z,27.40
2022-08-22T14:41:03.162Z,27.40
2022-08-22T14:48:37.551Z,27.40
2022-08-22T14:51:11.538Z,27.40
2022-08-22T14:53:40.516Z,27.30
2022-08-22T14:56:12.002Z,27.30
2022-08-22T14:58:48.726Z,27.30
2022-08-22T15:01:19.144Z,27.20
2022-08-22T15:03:53.598Z,27.30
2022-08-22T15:06:31.594Z,27.30
2022-08-22T15:09:07.860Z,27.40
2022-08-22T15:11:42.054Z,27.40
2022-08-22T15:14:13.689Z,27.50
2022-08-22T15:16:44.881Z,27.40
2022-08-22T15:19:24.553Z,27.40
2022-08-22T15:21:53.256Z,27.30
2022-08-22T15:24:22.597Z,27.10
2022-08-22T15:26:55.307Z,26.90
2022-08-22T15:29:26.410Z,26.80
2022-08-22T15:31:56.891Z,26.80
2022-08-22T15:34:31.036Z,26.90
2022-08-22T15:37:09.929Z,27.20
2022-08-22T15:40:00.307Z,27.10
2022-08-22T15:42:33.802Z,27.20
2022-08-22T15:45:02.956Z,27.20
2022-08-22T15:47:36.306Z,27.00
2022-08-22T15:50:07.708Z,27.10
2022-08-22T15:52:59.167Z,26.90
2022-08-22T15:55:34.293Z,26.80
2022-08-22T15:58:07.539Z,26.80
2022-08-22T16:00:43.304Z,26.60
2022-08-22T16:03:14.529Z,26.60
2022-08-22T16:05:45.692Z,26.50
2022-08-22T16:08:17.194Z,26.70
2022-08-22T16:10:48.390Z,26.70
2022-08-22T16:13:31.875Z,26.70
2022-08-22T16:16:03.091Z,26.80
2022-08-22T16:18:49.885Z,26.70
2022-08-22T16:21:19.263Z,26.70
2022-08-22T16:24:06.113Z,26.70
2022-08-22T16:26:39.023Z,26.80
2022-08-22T16:29:08.844Z,26.80
2022-08-22T16:31:39.898Z,26.80
2022-08-22T16:34:22.767Z,26.70
2022-08-22T16:36:52.838Z,26.60
2022-08-22T16:39:36.365Z,26.50
2022-08-22T16:42:25.361Z,26.40
2022-08-22T16:47:25.162Z,26.50
2022-08-22T16:50:05.457Z,26.50
2022-08-22T16:52:41.352Z,26.60
2022-08-22T16:55:39.873Z,26.60
2022-08-22T16:58:12.877Z,26.50
2022-08-22T17:00:48.746Z,26.50
2022-08-22T17:03:22.603Z,26.20
2022-08-22T17:05:56.117Z,26.20
2022-08-22T17:08:32.116Z,26.20
2022-08-22T17:11:04.002Z,26.20
2022-08-22T17:13:48.748Z,26.20
2022-08-22T17:16:32.013Z,26.20
2022-08-22T17:19:09.287Z,26.10
2022-08-22T17:21:40.309Z,26.00
2022-08-22T17:24:33.771Z,26.00
2022-08-22T17:27:07.085Z,26.00
2022-08-22T17:29:44.092Z,26.10
2022-08-22T17:32:17.850Z,26.10
2022-08-22T17:34:51.879Z,26.00
2022-08-22T17:37:22.769Z,25.90
2022-08-22T17:39:56.361Z,25.80
2022-08-22T17:42:37.581Z,25.90
2022-08-22T17:45:11.351Z,25.90
2022-08-22T17:47:43.041Z,25.70
2022-08-22T17:50:19.825Z,25.70
2022-08-22T17:52:50.290Z,25.80
2022-08-22T17:55:20.880Z,25.80
2022-08-22T17:57:52.557Z,25.80
2022-08-22T18:00:30.697Z,25.80
2022-08-22T18:03:02.509Z,25.80
2022-08-22T18:05:33.822Z,25.80
2022-08-22T18:08:06.238Z,25.60
2022-08-22T18:10:40.272Z,25.70
2022-08-22T18:13:11.298Z,25.70
2022-08-22T18:15:44.945Z,25.70
2022-08-22T18:18:16.194Z,25.60
2022-08-22T18:20:49.208Z,25.70
2022-08-22T18:23:35.821Z,25.70
2022-08-22T18:26:10.549Z,25.60
2022-08-22T18:28:42.050Z,25.60
2022-08-22T18:31:22.302Z,25.60
2022-08-22T18:33:53.366Z,25.50
2022-08-22T18:36:26.792Z,25.60
2022-08-22T18:38:58.564Z,25.60
2022-08-22T18:41:31.450Z,25.60
2022-08-22T18:44:01.120Z,25.50
2022-08-22T18:46:32.751Z,25.60
2022-08-22T18:49:17.777Z,25.70
2022-08-22T18:52:07.639Z,25.60
2022-08-22T18:54:40.342Z,25.60
2022-08-22T18:57:12.462Z,25.70
2022-08-22T18:59:46.954Z,25.70
2022-08-22T19:02:26.514Z,25.70
2022-08-22T19:05:21.463Z,25.70
2022-08-22T19:07:59.557Z,25.80
2022-08-22T19:10:37.497Z,25.80
2022-08-22T19:13:19.405Z,25.80
2022-08-22T19:15:55.424Z,25.80
2022-08-22T19:18:34.517Z,25.90
2022-08-22T19:21:37.684Z,25.90
2022-08-22T19:24:08.848Z,26.00
2022-08-22T19:26:39.146Z,26.00
2022-08-22T19:29:27.969Z,26.00
2022-08-22T19:31:57.845Z,26.10
2022-08-22T19:34:37.342Z,26.10
2022-08-22T19:37:30.908Z,26.00
2022-08-22T19:40:06.163Z,26.00
2022-08-22T19:42:37.107Z,26.00
2022-08-22T19:45:10.602Z,26.00
2022-08-22T19:47:40.638Z,26.00
2022-08-22T19:50:13.210Z,26.00
2022-08-22T19:52:50.701Z,26.20
2022-08-22T19:55:23.145Z,26.20
2022-08-22T19:57:56.699Z,26.40
2022-08-22T20:00:41.320Z,26.40
2022-08-22T20:03:13.436Z,26.40
2022-08-22T20:05:56.616Z,26.40
2022-08-22T20:08:34.072Z,26.30
2022-08-22T20:11:10.926Z,26.20
2022-08-22T20:13:39.745Z,26.30
2022-08-22T20:16:16.170Z,26.20
2022-08-22T20:19:07.680Z,26.10
2022-08-22T20:21:50.104Z,26.10
2022-08-22T20:24:22.417Z,26.10
2022-08-22T20:27:12.816Z,26.00
2022-08-22T20:29:45.198Z,26.00
2022-08-22T20:32:15.459Z,26.00
2022-08-22T20:34:44.346Z,26.00
2022-08-22T20:37:45.288Z,25.90
2022-08-22T20:40:11.271Z,25.90
2022-08-22T20:43:03.943Z,25.90
2022-08-22T20:45:42.609Z,26.00
2022-08-22T20:48:11.746Z,25.90
2022-08-22T20:50:40.267Z,26.00
2022-08-22T20:53:12.609Z,26.00
2022-08-22T20:55:41.058Z,26.10
2022-08-22T20:58:21.921Z,26.00
2022-08-22T21:00:52.468Z,26.00
2022-08-22T21:03:26.674Z,25.90
2022-08-22T21:05:55.127Z,25.90
2022-08-22T21:08:24.927Z,25.90
2022-08-22T21:11:15.005Z,25.80
2022-08-22T21:13:44.923Z,25.70
2022-08-22T21:16:14.342Z,25.70
2022-08-22T21:18:45.951Z,25.60
2022-08-22T21:21:18.982Z,25.60
2022-08-22T21:23:48.279Z,25.60
2022-08-22T21:26:21.492Z,25.50
2022-08-22T21:28:58.070Z,25.40
2022-08-22T21:31:27.878Z,25.40
2022-08-22T21:33:57.016Z,25.40
2022-08-22T21:36:28.791Z,25.50
2022-08-22T21:38:58.351Z,25.50
2022-08-22T21:41:27.895Z,25.50
2022-08-22T21:43:57.902Z,25.50
2022-08-22T21:46:28.614Z,25.50
2022-08-22T21:49:01.205Z,25.40
2022-08-22T21:51:31.872Z,25.50
2022-08-22T21:54:19.096Z,25.40
2022-08-22T21:56:47.701Z,25.30
2022-08-22T21:59:49.333Z,25.20
2022-08-22T22:02:29.792Z,25.20
2022-08-22T22:05:00.375Z,25.10
2022-08-22T22:07:30.272Z,25.00
2022-08-22T22:09:58.908Z,25.10
2022-08-22T22:12:27.460Z,25.10
2022-08-22T22:14:58.066Z,25.00
2022-08-22T22:17:26.593Z,25.10
2022-08-22T22:19:55.088Z,25.30
2022-08-22T22:22:24.293Z,25.40
2022-08-22T22:24:52.747Z,25.40
2022-08-22T22:27:21.194Z,25.30
2022-08-22T22:29:49.697Z,25.40
2022-08-22T22:32:19.622Z,25.30
2022-08-22T22:34:48.090Z,25.20
2022-08-22T22:37:16.641Z,25.20
2022-08-22T22:39:45.333Z,25.20
2022-08-22T22:42:13.800Z,25.20
2022-08-22T22:44:46.459Z,25.40
2022-08-22T22:47:16.130Z,25.40
2022-08-22T22:49:46.234Z,25.40
2022-08-22T22:52:14.750Z,25.50
2022-08-22T22:54:43.661Z,25.50
2022-08-22T22:57:14.561Z,25.30
2022-08-22T22:59:45.772Z,25.40
2022-08-22T23:02:18.359Z,25.40
2022-08-22T23:04:51.280Z,25.30
2022-08-22T23:09:48.350Z,25.20
2022-08-22T23:12:16.853Z,25.30
2022-08-22T23:14:45.338Z,25.30
2022-08-22T23:17:13.797Z,25.40
2022-08-22T23:19:42.813Z,25.50
2022-08-22T23:22:16.090Z,25.30
2022-08-22T23:27:13.554Z,25.40
2022-08-22T23:29:42.143Z,25.30
2022-08-22T23:32:12.006Z,25.30
2022-08-22T23:34:43.882Z,25.20
2022-08-22T23:37:13.611Z,25.10
